Time;durP1;ratioP1;P1;durP2;ratioP2;P2;SDS_P1;SDS_P2;PMS_P1;PMS_P2;Temp;Humidity;BMP_temperature;BMP_pressure;BME280_temperature;BME280_humidity;BME280_pressure;Samples;Min_cycle;Max_cycle;Signal;HPM_P1;HPM_P2
2021/12/22 00:00:54;;;;;;;8.93;4.93;;;-3.30;85.10;;;;;;4991604;28;20037;-79
2021/12/22 00:03:20;;;;;;;9.30;4.70;;;-3.20;85.10;;;;;;5007758;28;20558;-79
2021/12/22 00:05:47;;;;;;;9.43;4.30;;;-3.30;85.10;;;;;;5019035;28;20116;-79
2021/12/22 00:08:13;;;;;;;8.98;4.90;;;-3.30;85.10;;;;;;5042516;28;20527;-79
2021/12/22 00:10:42;;;;;;;8.88;4.35;;;-3.30;85.20;;;;;;5033177;28;20750;-79
2021/12/22 00:13:07;;;;;;;8.73;4.57;;;-3.30;85.20;;;;;;5017724;28;20041;-79
2021/12/22 00:15:33;;;;;;;9.80;5.00;;;-3.30;85.20;;;;;;5040046;28;20086;-79
2021/12/22 00:17:58;;;;;;;7.50;4.18;;;-3.30;85.30;;;;;;5008519;28;20085;-79
2021/12/22 00:20:24;;;;;;;7.25;4.32;;;-3.40;85.20;;;;;;5019831;28;20414;-81
2021/12/22 00:22:49;;;;;;;7.57;3.92;;;-3.40;85.20;;;;;;5018140;28;20515;-79
2021/12/22 00:25:16;;;;;;;10.80;5.22;;;-3.40;85.30;;;;;;5023849;28;20503;-80
2021/12/22 00:27:41;;;;;;;8.05;4.68;;;-3.40;85.30;;;;;;5038018;28;20037;-79
2021/12/22 00:30:08;;;;;;;8.40;4.32;;;-3.40;85.30;;;;;;5018752;28;20052;-79
2021/12/22 00:32:35;;;;;;;9.40;4.80;;;-3.40;85.40;;;;;;5019591;28;20056;-79
2021/12/22 00:35:01;;;;;;;7.07;4.45;;;-3.40;85.50;;;;;;5017423;28;20040;-79
2021/12/22 00:37:28;;;;;;;9.98;5.63;;;-3.40;85.50;;;;;;5018150;28;20045;-79
2021/12/22 00:39:54;;;;;;;8.18;4.50;;;-3.40;85.50;;;;;;5002644;28;20037;-79
2021/12/22 00:42:20;;;;;;;7.70;4.88;;;-3.40;85.50;;;;;;5001943;28;20056;-80
2021/12/22 00:44:49;;;;;;;9.25;4.50;;;-3.50;85.40;;;;;;5026152;28;20137;-80
2021/12/22 00:47:14;;;;;;;7.43;4.57;;;-3.50;85.50;;;;;;5002064;28;20068;-79
2021/12/22 00:49:40;;;;;;;9.05;5.57;;;-3.50;85.50;;;;;;5002584;28;20056;-79
2021/12/22 00:52:06;;;;;;;9.65;4.55;;;-3.60;85.40;;;;;;5037336;28;20045;-79
2021/12/22 00:54:31;;;;;;;7.13;4.93;;;-3.60;85.50;;;;;;5023463;28;20037;-79
2021/12/22 00:57:03;;;;;;;10.05;6.03;;;-3.60;85.50;;;;;;5039346;28;20116;-79
2021/12/22 00:59:28;;;;;;;9.57;4.95;;;-3.60;85.60;;;;;;5020135;28;20032;-79
2021/12/22 01:01:54;;;;;;;10.85;5.50;;;-3.60;85.60;;;;;;5008008;28;20526;-79
2021/12/22 01:04:19;;;;;;;11.52;5.40;;;-3.60;85.60;;;;;;5025549;28;20507;-79
2021/12/22 01:06:45;;;;;;;9.32;4.90;;;-3.70;85.60;;;;;;5021818;28;20384;-80
2021/12/22 01:09:11;;;;;;;12.98;5.78;;;-3.60;85.70;;;;;;5057321;28;20710;-79
2021/12/22 01:11:36;;;;;;;11.90;5.32;;;-3.70;85.60;;;;;;5025941;28;20132;-79
2021/12/22 01:14:03;;;;;;;11.82;5.53;;;-3.70;85.70;;;;;;5040777;28;20044;-79
2021/12/22 01:16:29;;;;;;;10.50;5.50;;;-3.70;85.80;;;;;;5008203;28;20538;-80
2021/12/22 01:18:57;;;;;;;7.28;4.47;;;-3.80;85.60;;;;;;5013001;28;20048;-79
2021/12/22 01:21:47;;;;;;;10.10;4.47;;;-3.80;85.70;;;;;;5045254;28;20597;-80
2021/12/22 01:24:33;;;;;;;8.70;4.65;;;-3.80;85.80;;;;;;5039258;28;20044;-79
2021/12/22 01:27:07;;;;;;;9.35;5.03;;;-3.90;85.70;;;;;;5026567;28;20082;-80
2021/12/22 01:29:34;;;;;;;8.98;5.00;;;-3.80;85.80;;;;;;5032081;28;20216;-79
2021/12/22 01:32:00;;;;;;;9.38;4.72;;;-3.90;85.70;;;;;;5024020;28;20033;-78
2021/12/22 01:34:26;;;;;;;6.43;4.20;;;-3.90;85.80;;;;;;5008882;28;20041;-78
2021/12/22 01:36:51;;;;;;;10.77;4.63;;;-3.90;85.90;;;;;;5014011;28;20261;-78
2021/12/22 01:39:17;;;;;;;10.52;5.32;;;-3.90;86.00;;;;;;5009749;28;20091;-78
2021/12/22 01:41:43;;;;;;;8.73;4.85;;;-3.90;86.00;;;;;;5015669;28;20055;-78
2021/12/22 01:44:10;;;;;;;11.38;5.25;;;-3.90;86.10;;;;;;5025059;28;20072;-78
2021/12/22 01:49:11;;;;;;;11.00;5.63;;;-3.90;86.00;;;;;;5020413;28;20035;-78
2021/12/22 01:51:40;;;;;;;9.32;4.65;;;-3.90;86.00;;;;;;5020407;28;20119;-78
2021/12/22 01:54:27;;;;;;;7.43;4.70;;;-3.90;86.00;;;;;;5036247;28;20408;-79
2021/12/22 01:56:53;;;;;;;11.45;5.20;;;-4.00;85.90;;;;;;4996810;28;20063;-78
2021/12/22 01:59:22;;;;;;;11.48;5.65;;;-4.00;86.00;;;;;;5015007;28;20618;-78
2021/12/22 02:01:47;;;;;;;7.85;4.82;;;-4.00;86.10;;;;;;5006482;28;20049;-78
2021/12/22 02:04:13;;;;;;;12.68;5.00;;;-4.00;86.10;;;;;;4999967;28;20032;-79
2021/12/22 02:06:40;;;;;;;9.40;5.22;;;-4.00;86.20;;;;;;5032722;28;20719;-79
2021/12/22 02:09:05;;;;;;;11.55;5.68;;;-4.00;86.20;;;;;;5019330;28;20032;-78
2021/12/22 02:11:31;;;;;;;10.20;5.30;;;-4.10;86.10;;;;;;5020522;28;20419;-78
2021/12/22 02:14:01;;;;;;;9.13;4.97;;;-4.10;86.20;;;;;;5022139;28;20495;-78
2021/12/22 02:16:29;;;;;;;10.15;5.45;;;-4.10;86.20;;;;;;5046571;28;20029;-78
2021/12/22 02:18:55;;;;;;;8.43;4.65;;;-4.10;86.10;;;;;;5006167;28;20029;-78
2021/12/22 02:21:22;;;;;;;9.32;5.07;;;-4.20;86.10;;;;;;5035451;28;20033;-78
2021/12/22 02:23:48;;;;;;;8.00;4.93;;;-4.20;86.10;;;;;;5028547;28;20100;-78
2021/12/22 02:26:19;;;;;;;10.98;5.20;;;-4.20;86.10;;;;;;5035549;28;20159;-78
2021/12/22 02:28:49;;;;;;;8.25;4.53;;;-4.30;86.10;;;;;;5041657;28;20029;-78
2021/12/22 02:31:18;;;;;;;9.27;5.05;;;-4.30;86.20;;;;;;5024463;28;20029;-78
2021/12/22 02:33:46;;;;;;;10.18;5.03;;;-4.30;86.30;;;;;;5020565;28;20032;-79
2021/12/22 02:38:45;;;;;;;7.40;4.78;;;-4.30;86.30;;;;;;5012173;28;20032;-78
2021/12/22 02:41:13;;;;;;;10.10;5.30;;;-4.30;86.30;;;;;;5006118;28;20040;-78
2021/12/22 02:43:48;;;;;;;6.90;4.82;;;-4.40;86.30;;;;;;5002251;28;20041;-78
2021/12/22 02:46:15;;;;;;;10.23;4.32;;;-4.30;86.40;;;;;;5025387;28;20028;-77
2021/12/22 02:48:41;;;;;;;9.10;4.72;;;-4.40;86.30;;;;;;5002641;28;20059;-78
2021/12/22 02:51:06;;;;;;;10.18;4.90;;;-4.30;86.40;;;;;;5015022;28;20075;-78
2021/12/22 02:53:45;;;;;;;7.85;4.22;;;-4.30;86.40;;;;;;5024739;28;20056;-78
2021/12/22 02:56:30;;;;;;;6.32;4.25;;;-4.40;86.40;;;;;;5009686;28;20840;-78
2021/12/22 03:04:08;;;;;;;12.05;4.85;;;-4.40;86.40;;;;;;5024788;28;20491;-78
2021/12/22 03:06:42;;;;;;;6.43;3.90;;;-4.40;86.40;;;;;;5011545;28;20052;-79
2021/12/22 03:09:17;;;;;;;7.55;4.25;;;-4.40;86.40;;;;;;5021057;28;20596;-78
2021/12/22 03:11:42;;;;;;;11.38;5.10;;;-4.40;86.40;;;;;;5021225;28;20045;-79
2021/12/22 03:14:08;;;;;;;7.93;4.47;;;-4.40;87.20;;;;;;5018205;28;20086;-80
2021/12/22 03:16:33;;;;;;;10.85;5.18;;;-4.40;86.40;;;;;;5016206;28;20029;-78
2021/12/22 03:18:59;;;;;;;10.00;4.13;;;-4.40;86.40;;;;;;5034693;28;20033;-79
2021/12/22 03:21:24;;;;;;;10.20;5.13;;;-4.50;86.40;;;;;;5005577;28;20415;-78
2021/12/22 03:23:52;;;;;;;9.98;5.15;;;-4.50;86.40;;;;;;5038359;28;20132;-77
2021/12/22 03:26:18;;;;;;;10.25;5.00;;;-4.50;86.50;;;;;;4990576;28;20029;-80
2021/12/22 03:28:45;;;;;;;8.00;4.18;;;-4.50;86.40;;;;;;4996411;28;20495;-79
2021/12/22 03:31:10;;;;;;;12.23;5.25;;;-4.50;86.50;;;;;;5025814;28;20041;-78
2021/12/22 03:33:36;;;;;;;8.05;4.45;;;-4.50;86.60;;;;;;5018758;28;20025;-78
2021/12/22 03:36:01;;;;;;;7.28;4.70;;;-4.50;86.50;;;;;;5023035;28;20029;-79
2021/12/22 03:38:29;;;;;;;12.63;5.00;;;-4.50;86.50;;;;;;5014093;28;20064;-79
2021/12/22 03:40:55;;;;;;;7.68;4.50;;;-4.60;86.50;;;;;;5032281;28;20030;-77
2021/12/22 03:43:20;;;;;;;8.00;4.88;;;-4.60;86.50;;;;;;5053855;28;20741;-78
2021/12/22 03:45:46;;;;;;;7.95;4.38;;;-4.60;86.40;;;;;;4993292;28;20511;-79
2021/12/22 03:48:12;;;;;;;10.48;4.72;;;-4.60;86.50;;;;;;5021486;28;20044;-78
2021/12/22 03:50:37;;;;;;;10.20;5.05;;;-4.60;86.60;;;;;;5040557;28;20384;-79
2021/12/22 03:53:03;;;;;;;9.20;4.78;;;-4.70;86.50;;;;;;5017965;28;20039;-77
2021/12/22 03:55:29;;;;;;;10.73;5.20;;;-4.70;86.60;;;;;;5031169;28;20087;-78
2021/12/22 03:57:54;;;;;;;7.55;4.35;;;-4.70;86.70;;;;;;5053314;28;20041;-79
2021/12/22 04:00:20;;;;;;;7.85;4.47;;;-4.70;86.60;;;;;;5025388;28;20788;-79
2021/12/22 04:02:45;;;;;;;8.45;4.82;;;-4.70;86.60;;;;;;5029969;28;20515;-79
2021/12/22 04:05:11;;;;;;;9.30;4.53;;;-4.70;86.70;;;;;;5026006;28;20131;-79
2021/12/22 04:07:37;;;;;;;6.63;4.03;;;-4.70;86.70;;;;;;4999862;28;20403;-79
2021/12/22 04:10:18;;;;;;;7.32;4.38;;;-4.70;86.70;;;;;;5016386;28;20033;-79
2021/12/22 04:12:44;;;;;;;9.73;4.55;;;-4.80;86.60;;;;;;5023456;28;20112;-79
2021/12/22 04:15:10;;;;;;;7.25;4.80;;;-4.80;86.60;;;;;;5021462;28;20128;-78
2021/12/22 04:17:35;;;;;;;10.50;4.38;;;-4.80;86.70;;;;;;5009433;28;20503;-79
2021/12/22 04:20:01;;;;;;;6.15;4.32;;;-4.80;86.70;;;;;;5015156;28;20039;-79
2021/12/22 04:22:26;;;;;;;10.13;5.22;;;-4.80;86.80;;;;;;5029692;28;20503;-78
2021/12/22 04:24:52;;;;;;;9.18;4.63;;;-4.80;86.80;;;;;;5016565;28;20037;-79
2021/12/22 04:27:17;;;;;;;8.05;4.82;;;-4.80;86.80;;;;;;5020906;28;20488;-79
2021/12/22 04:29:43;;;;;;;10.18;5.05;;;-4.80;86.90;;;;;;5017012;28;20129;-79
2021/12/22 04:32:08;;;;;;;9.00;4.40;;;-4.80;86.90;;;;;;4996383;28;20048;-79
2021/12/22 04:34:34;;;;;;;8.77;4.72;;;-4.80;86.90;;;;;;5034462;28;20039;-79
2021/12/22 04:36:59;;;;;;;10.38;5.28;;;-4.90;86.80;;;;;;5006451;28;20048;-78
2021/12/22 04:39:25;;;;;;;9.15;4.97;;;-4.90;86.90;;;;;;5010837;28;20121;-79
2021/12/22 04:41:51;;;;;;;12.13;5.50;;;-4.90;86.90;;;;;;4996799;28;20542;-79
2021/12/22 04:44:17;;;;;;;9.75;5.28;;;-4.90;87.70;;;;;;5051749;28;20037;-79
2021/12/22 04:46:42;;;;;;;15.43;5.18;;;-4.90;87.00;;;;;;5007733;28;20029;-78
2021/12/22 04:49:08;;;;;;;13.20;6.65;;;-4.90;87.00;;;;;;5003016;28;20431;-79
2021/12/22 04:51:35;;;;;;;9.63;5.43;;;-4.90;87.00;;;;;;5025048;28;20707;-78
2021/12/22 04:54:06;;;;;;;10.75;5.07;;;-4.90;87.00;;;;;;5037213;28;20494;-79
2021/12/22 04:56:32;;;;;;;13.43;5.55;;;-4.90;87.00;;;;;;5046584;28;20036;-78
2021/12/22 04:58:57;;;;;;;8.30;4.90;;;-4.90;87.10;;;;;;5006550;28;20032;-78
2021/12/22 05:01:23;;;;;;;9.68;5.22;;;-4.90;87.10;;;;;;5004192;28;20045;-77
2021/12/22 05:03:48;;;;;;;11.35;5.18;;;-4.90;87.10;;;;;;5015183;28;20125;-79
2021/12/22 05:06:14;;;;;;;14.13;6.90;;;-4.90;87.20;;;;;;5007865;28;20028;-78
2021/12/22 05:08:39;;;;;;;13.15;5.38;;;-4.90;87.10;;;;;;5006216;28;20095;-78
2021/12/22 05:11:05;;;;;;;6.38;4.05;;;-4.90;87.10;;;;;;5023284;28;20036;-79
2021/12/22 05:13:33;;;;;;;12.98;5.00;;;-5.00;87.00;;;;;;5028005;28;20033;-79
2021/12/22 05:15:58;;;;;;;6.38;4.50;;;-5.00;86.90;;;;;;5002492;28;20041;-79
2021/12/22 05:21:08;;;;;;;13.60;4.90;;;-5.00;87.00;;;;;;5025621;28;20040;-79
2021/12/22 05:23:33;;;;;;;9.52;5.43;;;-5.00;87.10;;;;;;5023593;28;20033;-79
2021/12/22 05:25:59;;;;;;;10.07;5.47;;;-5.00;87.20;;;;;;5018686;28;20025;-79
2021/12/22 05:28:24;;;;;;;7.03;5.45;;;-5.00;87.20;;;;;;5006719;28;20057;-80
2021/12/22 05:30:50;;;;;;;8.27;4.82;;;-5.00;87.20;;;;;;5027616;28;20040;-80
2021/12/22 05:33:16;;;;;;;8.48;5.03;;;-5.00;87.20;;;;;;5054640;28;20564;-79
2021/12/22 05:35:41;;;;;;;8.93;4.65;;;-5.00;87.20;;;;;;5023829;28;20060;-80
2021/12/22 05:38:07;;;;;;;8.90;5.13;;;-5.00;87.20;;;;;;5021889;28;20136;-78
2021/12/22 05:40:32;;;;;;;6.90;4.43;;;-5.00;87.20;;;;;;5040718;28;20063;-79
2021/12/22 05:42:58;;;;;;;8.50;4.70;;;-5.00;87.20;;;;;;5020639;28;20416;-79
2021/12/22 05:45:25;;;;;;;10.75;4.97;;;-5.00;87.20;;;;;;5023908;28;20064;-79
2021/12/22 05:47:51;;;;;;;8.35;4.95;;;-5.00;87.20;;;;;;5013338;28;20119;-79
2021/12/22 05:50:17;;;;;;;13.88;5.93;;;-5.00;87.20;;;;;;5003651;28;20032;-79
2021/12/22 05:52:42;;;;;;;11.98;6.00;;;-5.10;87.10;;;;;;5025110;28;20069;-79
2021/12/22 05:55:08;;;;;;;16.15;6.13;;;-5.10;87.10;;;;;;5003227;28;20093;-79
2021/12/22 05:57:34;;;;;;;17.33;6.78;;;-5.10;87.20;;;;;;5033047;28;20068;-79
2021/12/22 05:59:59;;;;;;;19.40;7.43;;;-5.10;87.20;;;;;;5035939;28;20605;-79
2021/12/22 06:02:25;;;;;;;16.75;7.72;;;-5.20;87.20;;;;;;4990795;28;1083118;-79
2021/12/22 06:04:51;;;;;;;15.93;6.60;;;-5.20;87.20;;;;;;5018056;28;20036;-79
2021/12/22 06:07:16;;;;;;;8.88;5.13;;;-5.20;87.20;;;;;;5024700;28;20415;-79
2021/12/22 06:09:42;;;;;;;12.63;5.93;;;-5.20;87.20;;;;;;5007451;28;20168;-79
2021/12/22 06:12:07;;;;;;;14.13;5.82;;;-5.20;87.20;;;;;;5029551;28;20560;-79
2021/12/22 06:14:33;;;;;;;16.15;5.68;;;-5.20;87.20;;;;;;5037272;28;20805;-79
2021/12/22 06:16:58;;;;;;;13.07;5.72;;;-5.20;87.20;;;;;;5006816;28;20041;-78
2021/12/22 06:19:24;;;;;;;15.02;6.15;;;-5.20;87.20;;;;;;5024938;28;20104;-79
2021/12/22 06:21:50;;;;;;;16.17;6.75;;;-5.20;87.30;;;;;;5021009;28;20128;-79
2021/12/22 06:24:16;;;;;;;16.95;6.70;;;-5.20;87.30;;;;;;5011725;28;20036;-78
2021/12/22 06:26:41;;;;;;;14.88;6.03;;;-5.20;87.30;;;;;;5009874;28;20033;-80
2021/12/22 06:29:07;;;;;;;12.52;6.20;;;-5.20;87.30;;;;;;5038282;28;20130;-79
2021/12/22 06:31:32;;;;;;;12.32;6.22;;;-5.20;87.30;;;;;;5021595;28;20526;-78
2021/12/22 06:33:58;;;;;;;13.23;6.22;;;-5.30;87.30;;;;;;5024040;28;20065;-80
2021/12/22 06:36:23;;;;;;;10.32;5.10;;;-5.30;87.30;;;;;;5021660;28;20519;-79
2021/12/22 06:38:49;;;;;;;10.48;5.70;;;-5.30;87.30;;;;;;5006154;28;20029;-78
2021/12/22 06:41:14;;;;;;;10.20;5.63;;;-5.30;87.30;;;;;;5022106;28;20064;-79
2021/12/22 06:43:40;;;;;;;12.68;6.53;;;-5.30;87.30;;;;;;5025711;28;20381;-79
2021/12/22 06:46:05;;;;;;;12.98;4.90;;;-5.30;87.30;;;;;;5039296;28;20037;-78
2021/12/22 06:48:31;;;;;;;11.85;5.75;;;-5.30;87.40;;;;;;5020598;28;20033;-79
2021/12/22 06:50:56;;;;;;;10.25;5.28;;;-5.30;87.40;;;;;;5007261;28;20124;-80
2021/12/22 06:53:22;;;;;;;9.35;4.95;;;-5.40;87.30;;;;;;5038867;28;20041;-80
2021/12/22 06:55:47;;;;;;;14.52;5.57;;;-5.40;87.30;;;;;;5034128;28;20040;-79
2021/12/22 06:58:13;;;;;;;10.98;5.20;;;-5.40;87.30;;;;;;5013458;28;20457;-79
2021/12/22 07:00:39;;;;;;;8.43;4.95;;;-5.40;87.30;;;;;;5024226;28;20039;-79
2021/12/22 07:03:05;;;;;;;9.20;5.55;;;-5.40;87.30;;;;;;5019970;28;20052;-78
2021/12/22 07:05:31;;;;;;;10.50;5.13;;;-5.40;87.30;;;;;;4997937;28;20050;-79
2021/12/22 07:07:56;;;;;;;7.57;4.75;;;-5.40;87.30;;;;;;5025345;28;20045;-79
2021/12/22 07:10:22;;;;;;;10.35;5.32;;;-5.40;87.30;;;;;;5022221;28;20053;-79
2021/12/22 07:12:48;;;;;;;10.35;5.40;;;-5.40;87.40;;;;;;5006870;28;20033;-78
2021/12/22 07:15:14;;;;;;;9.85;5.45;;;-5.40;87.40;;;;;;5005182;28;20037;-79
2021/12/22 07:17:41;;;;;;;9.43;5.30;;;-5.40;87.40;;;;;;5006730;28;20033;-79
2021/12/22 07:20:08;;;;;;;8.55;4.93;;;-5.40;87.40;;;;;;5022221;28;20044;-79
2021/12/22 07:22:33;;;;;;;10.45;5.10;;;-5.40;87.50;;;;;;5006903;28;20094;-78
2021/12/22 07:24:59;;;;;;;15.35;7.13;;;-5.40;87.50;;;;;;5010338;28;20029;-79
2021/12/22 07:27:24;;;;;;;16.35;6.78;;;-5.50;87.50;;;;;;5025074;28;20036;-78
2021/12/22 07:29:50;;;;;;;18.25;8.32;;;-5.50;87.40;;;;;;5016577;28;20060;-79
2021/12/22 07:32:16;;;;;;;14.32;8.13;;;-5.50;87.50;;;;;;5041907;28;20025;-78
2021/12/22 07:34:46;;;;;;;17.10;7.43;;;-5.40;87.50;;;;;;5021909;28;20029;-79
2021/12/22 07:37:19;;;;;;;11.35;7.28;;;-5.40;87.50;;;;;;5015072;28;20443;-79
2021/12/22 07:39:44;;;;;;;14.48;7.00;;;-5.40;87.60;;;;;;5009824;28;20576;-79
2021/12/22 07:42:10;;;;;;;11.80;6.47;;;-5.40;87.60;;;;;;5025349;28;20440;-78
2021/12/22 07:44:35;;;;;;;14.13;6.93;;;-5.40;87.70;;;;;;5016805;28;20037;-79
2021/12/22 07:47:01;;;;;;;17.10;8.23;;;-5.40;87.60;;;;;;5020765;28;20036;-78
2021/12/22 07:49:26;;;;;;;14.65;6.95;;;-5.40;87.60;;;;;;5021487;28;20029;-79
2021/12/22 07:51:52;;;;;;;16.55;9.88;;;-5.40;87.60;;;;;;5023475;28;20037;-78
2021/12/22 07:54:17;;;;;;;19.15;11.30;;;-5.40;87.70;;;;;;4989819;28;20025;-79
2021/12/22 07:56:43;;;;;;;19.90;11.95;;;-5.40;87.60;;;;;;5040205;28;20029;-78
2021/12/22 07:59:08;;;;;;;20.90;11.85;;;-5.40;87.60;;;;;;5013096;28;20029;-79
2021/12/22 08:01:34;;;;;;;17.38;9.93;;;-5.40;87.60;;;;;;5033040;28;20044;-79
2021/12/22 08:03:59;;;;;;;22.85;11.57;;;-5.40;87.60;;;;;;5040192;28;20150;-79
2021/12/22 08:06:25;;;;;;;19.70;8.68;;;-5.40;87.60;;;;;;5006294;28;20123;-78
2021/12/22 08:08:50;;;;;;;13.50;7.07;;;-5.40;87.60;;;;;;5021677;28;20132;-79
2021/12/22 08:11:16;;;;;;;22.60;12.68;;;-5.40;87.60;;;;;;5027307;28;20036;-78
2021/12/22 08:13:41;;;;;;;22.40;11.80;;;-5.40;87.50;;;;;;5036251;28;20060;-78
2021/12/22 08:16:07;;;;;;;23.58;11.32;;;-5.50;87.50;;;;;;5019779;28;20052;-79
2021/12/22 08:18:32;;;;;;;27.67;11.20;;;-5.40;87.60;;;;;;5005159;28;20064;-78
2021/12/22 08:20:58;;;;;;;19.63;10.90;;;-5.40;87.60;;;;;;4987513;28;20032;-78
2021/12/22 08:23:23;;;;;;;18.70;10.07;;;-5.50;87.60;;;;;;5025114;28;20061;-80
2021/12/22 08:25:49;;;;;;;20.17;9.93;;;-5.40;87.80;;;;;;5042434;28;20044;-79
2021/12/22 08:28:15;;;;;;;45.78;20.95;;;-5.40;87.80;;;;;;5011107;28;20064;-79
2021/12/22 08:30:40;;;;;;;33.08;17.27;;;-5.40;87.80;;;;;;5033444;28;20074;-78
2021/12/22 08:33:13;;;;;;;32.00;17.85;;;-5.40;87.80;;;;;;5019265;28;20163;-79
2021/12/22 08:38:50;;;;;;;34.53;20.90;;;-5.40;87.90;;;;;;5027731;28;20037;-79
2021/12/22 08:41:09;;;;;;;30.25;14.60;;;-5.20;88.10;;;;;;5020082;28;20056;-79
2021/12/22 08:43:34;;;;;;;31.73;14.90;;;-5.10;88.10;;;;;;5018973;28;20040;-78
2021/12/22 08:46:00;;;;;;;28.65;13.95;;;-5.10;88.00;;;;;;5002050;28;20572;-80
2021/12/22 08:48:25;;;;;;;36.60;14.60;;;-5.00;88.10;;;;;;5017987;28;20040;-78
2021/12/22 08:50:51;;;;;;;44.08;19.27;;;-4.90;88.20;;;;;;5039292;28;20098;-79
2021/12/22 08:53:16;;;;;;;29.23;14.50;;;-4.90;88.20;;;;;;5019446;28;20120;-78
2021/12/22 08:55:42;;;;;;;25.42;13.75;;;-4.80;88.20;;;;;;5018284;28;20049;-79
2021/12/22 08:58:07;;;;;;;23.52;12.85;;;-4.70;88.30;;;;;;5015880;28;20036;-79
2021/12/22 09:00:36;;;;;;;19.30;11.75;;;-4.70;88.20;;;;;;5006913;28;20133;-79
2021/12/22 09:03:01;;;;;;;24.50;13.73;;;-4.60;88.20;;;;;;4997136;28;20045;-79
2021/12/22 09:05:27;;;;;;;27.48;15.43;;;-4.50;88.30;;;;;;5024389;28;20369;-79
2021/12/22 09:07:52;;;;;;;26.80;13.25;;;-4.40;88.40;;;;;;5019845;28;20040;-78
2021/12/22 09:10:18;;;;;;;31.70;16.40;;;-4.40;88.30;;;;;;5017676;28;20029;-79
2021/12/22 09:12:44;;;;;;;36.45;18.65;;;-4.30;88.40;;;;;;5003446;28;20061;-79
2021/12/22 09:15:09;;;;;;;30.15;18.55;;;-4.20;89.20;;;;;;5015154;28;20029;-80
2021/12/22 09:17:35;;;;;;;35.50;16.25;;;-4.10;88.40;;;;;;5006486;28;20056;-79
2021/12/22 09:20:00;;;;;;;33.35;15.70;;;-4.00;88.40;;;;;;5016235;28;20057;-79
2021/12/22 09:22:26;;;;;;;27.67;15.48;;;-3.90;88.40;;;;;;5028974;28;20124;-79
2021/12/22 09:24:52;;;;;;;31.33;15.55;;;-3.80;88.60;;;;;;5009364;28;20064;-79
2021/12/22 09:27:17;;;;;;;32.58;15.25;;;-3.70;88.70;;;;;;5039600;28;20670;-78
2021/12/22 09:29:43;;;;;;;26.20;15.00;;;-3.60;88.70;;;;;;5021384;28;20037;-79
2021/12/22 09:32:12;;;;;;;27.73;15.15;;;-3.50;88.80;;;;;;5024599;28;20060;-79
2021/12/22 09:34:37;;;;;;;50.33;21.45;;;-3.30;88.90;;;;;;5011355;28;20041;-78
2021/12/22 09:37:03;;;;;;;33.58;18.17;;;-3.20;88.90;;;;;;5023951;28;20150;-78
2021/12/22 09:39:28;;;;;;;46.17;22.13;;;-3.10;88.90;;;;;;5009813;28;20029;-78
2021/12/22 09:41:54;;;;;;;39.05;20.55;;;-3.00;88.80;;;;;;4991025;28;20103;-78
2021/12/22 09:44:20;;;;;;;30.35;15.23;;;-2.90;88.70;;;;;;4991552;28;20037;-78
2021/12/22 09:46:49;;;;;;;33.53;18.08;;;-2.80;88.60;;;;;;5023415;28;20438;-80
2021/12/22 09:54:43;;;;;;;30.25;14.23;;;-2.40;88.70;;;;;;5052096;28;20102;-78
2021/12/22 09:57:08;;;;;;;24.70;12.90;;;-2.30;88.60;;;;;;4990487;28;20037;-78
2021/12/22 09:59:34;;;;;;;24.60;12.25;;;-2.10;88.50;;;;;;5024963;28;20044;-78
2021/12/22 10:01:59;;;;;;;30.05;14.50;;;-2.10;88.20;;;;;;5004544;28;20040;-79
2021/12/22 10:04:25;;;;;;;34.35;16.15;;;-2.00;88.00;;;;;;5025779;28;20639;-79
2021/12/22 10:06:50;;;;;;;27.38;14.30;;;-1.90;87.90;;;;;;5024938;28;20175;-78
2021/12/22 10:09:16;;;;;;;30.80;14.55;;;-1.80;87.70;;;;;;5017101;28;20086;-78
2021/12/22 10:11:44;;;;;;;36.15;13.88;;;-1.70;87.80;;;;;;5009052;28;20416;-78
2021/12/22 10:14:41;;;;;;;31.73;14.25;;;-1.60;87.80;;;;;;5019285;28;20036;-79
2021/12/22 10:17:09;;;;;;;46.15;21.05;;;-1.50;87.60;;;;;;5000434;28;20547;-81
2021/12/22 10:19:35;;;;;;;34.67;18.65;;;-1.40;87.40;;;;;;5033463;28;20032;-80
2021/12/22 10:22:01;;;;;;;21.75;13.60;;;-1.30;87.30;;;;;;5026579;28;20052;-78
2021/12/22 10:24:44;;;;;;;19.27;11.90;;;-1.20;87.20;;;;;;4998390;28;20085;-79
2021/12/22 10:27:17;;;;;;;24.23;14.07;;;-1.20;86.80;;;;;;5026908;28;20052;-79
2021/12/22 10:29:43;;;;;;;23.95;14.80;;;-1.10;86.90;;;;;;5004240;28;20127;-78
2021/12/22 10:32:10;;;;;;;26.63;15.38;;;-0.90;87.10;;;;;;5011318;28;20092;-78
2021/12/22 10:34:36;;;;;;;25.05;14.27;;;-0.80;87.50;;;;;;5038026;28;20097;-79
2021/12/22 10:37:01;;;;;;;40.67;19.10;;;-0.50;87.90;;;;;;5024973;28;20587;-79
2021/12/22 10:39:33;;;;;;;76.47;32.08;;;-0.40;87.90;;;;;;5042970;28;20123;-79
2021/12/22 10:42:07;;;;;;;39.80;19.27;;;-0.20;87.90;;;;;;5030250;28;20078;-79
2021/12/22 10:44:37;;;;;;;35.17;16.85;;;0.00;87.90;;;;;;5019061;28;20495;-79
2021/12/22 10:47:20;;;;;;;32.97;18.88;;;0.20;87.90;;;;;;5021216;28;20047;-79
2021/12/22 10:49:58;;;;;;;34.05;20.02;;;0.40;88.00;;;;;;5024372;28;20116;-79
2021/12/22 10:52:24;;;;;;;32.75;18.27;;;0.60;87.90;;;;;;5019588;28;20510;-78
2021/12/22 10:54:51;;;;;;;30.25;19.27;;;0.80;87.90;;;;;;4982551;28;20120;-81
2021/12/22 10:57:16;;;;;;;31.60;15.98;;;1.00;87.80;;;;;;5023968;28;20039;-80
2021/12/22 10:59:45;;;;;;;28.30;15.18;;;1.20;87.70;;;;;;5028588;28;20033;-79
2021/12/22 11:02:11;;;;;;;32.38;15.07;;;1.30;87.20;;;;;;5038132;28;20115;-79
2021/12/22 11:04:42;;;;;;;27.88;13.98;;;1.40;87.00;;;;;;5026295;28;20036;-79
2021/12/22 11:07:16;;;;;;;25.52;14.98;;;1.40;86.20;;;;;;5040324;28;20036;-79
2021/12/22 11:09:41;;;;;;;34.55;13.90;;;1.40;85.90;;;;;;5005902;28;20029;-79
2021/12/22 11:12:07;;;;;;;24.23;11.40;;;1.60;86.10;;;;;;5054236;28;20043;-79
2021/12/22 11:14:38;;;;;;;26.25;13.32;;;1.70;86.10;;;;;;5005754;28;20052;-79
2021/12/22 11:17:11;;;;;;;29.67;11.15;;;1.80;86.10;;;;;;5040115;28;20557;-81
2021/12/22 11:19:48;;;;;;;17.17;10.20;;;2.00;86.30;;;;;;4994453;28;20061;-80
2021/12/22 11:22:15;;;;;;;19.17;11.32;;;2.10;86.20;;;;;;5017270;28;20029;-79
2021/12/22 11:24:52;;;;;;;27.75;14.13;;;2.30;86.20;;;;;;5006301;28;20493;-79
2021/12/22 11:27:20;;;;;;;20.30;10.82;;;2.50;86.00;;;;;;5044617;28;20052;-81
2021/12/22 11:29:54;;;;;;;23.20;10.05;;;2.70;85.70;;;;;;4998001;28;20063;-79
2021/12/22 11:32:21;;;;;;;18.00;10.05;;;2.70;85.10;;;;;;5023616;28;20517;-79
2021/12/22 11:34:51;;;;;;;17.38;10.55;;;2.90;85.10;;;;;;5017689;28;20040;-79
2021/12/22 11:37:17;;;;;;;23.13;10.98;;;2.90;84.30;;;;;;5004999;28;20048;-81
2021/12/22 11:39:43;;;;;;;18.63;10.60;;;3.00;84.30;;;;;;5020146;28;20118;-80
2021/12/22 11:42:09;;;;;;;16.67;10.20;;;3.00;83.80;;;;;;5004762;28;20033;-79
2021/12/22 11:44:37;;;;;;;21.70;11.27;;;3.10;83.80;;;;;;5023199;28;20029;-79
2021/12/22 11:47:04;;;;;;;17.15;10.32;;;3.20;84.00;;;;;;5021772;28;20036;-80
2021/12/22 11:49:34;;;;;;;20.00;9.85;;;3.20;83.60;;;;;;5006262;28;20084;-79
2021/12/22 11:52:00;;;;;;;16.23;10.15;;;3.40;83.80;;;;;;5014578;28;20575;-80
2021/12/22 11:54:28;;;;;;;30.90;13.43;;;3.50;83.60;;;;;;5037561;28;20037;-80
2021/12/22 11:56:57;;;;;;;68.72;28.15;;;3.50;83.20;;;;;;5009549;28;20032;-79
2021/12/22 11:59:49;;;;;;;24.63;15.20;;;3.70;83.30;;;;;;4986233;28;20042;-79
2021/12/22 12:02:23;;;;;;;21.70;14.15;;;3.80;82.40;;;;;;5033728;28;21665;-79
2021/12/22 12:04:51;;;;;;;35.40;17.80;;;3.80;82.50;;;;;;5036315;28;20474;-78
2021/12/22 12:07:44;;;;;;;38.28;20.77;;;3.80;82.30;;;;;;5013026;28;20495;-79
2021/12/22 12:10:39;;;;;;;22.65;14.45;;;3.90;81.80;;;;;;5038419;28;20052;-79
2021/12/22 12:13:19;;;;;;;19.30;12.55;;;3.90;81.60;;;;;;5038976;28;20037;-80
2021/12/22 12:22:07;;;;;;;23.95;12.77;;;4.30;82.50;;;;;;5020258;28;20036;-79
2021/12/22 12:24:39;;;;;;;20.10;12.07;;;4.50;82.00;;;;;;5038588;28;20041;-81
2021/12/22 12:27:29;;;;;;;16.50;11.77;;;4.70;82.10;;;;;;5035834;28;20049;-80
2021/12/22 12:30:13;;;;;;;18.90;11.60;;;4.80;81.20;;;;;;5025935;28;20475;-82
2021/12/22 12:32:39;;;;;;;17.83;9.93;;;4.80;81.10;;;;;;5036696;28;20757;-79
2021/12/22 12:35:20;;;;;;;35.63;14.43;;;4.80;80.70;;;;;;5023894;28;20032;-79
2021/12/22 12:38:04;;;;;;;20.77;11.32;;;4.80;80.20;;;;;;5021853;28;20056;-79
2021/12/22 12:40:54;;;;;;;22.45;12.10;;;4.90;80.90;;;;;;5037198;28;20053;-79
2021/12/22 12:43:45;;;;;;;22.35;11.18;;;5.00;80.90;;;;;;5031982;28;20060;-79
2021/12/22 12:46:29;;;;;;;16.10;10.32;;;5.10;80.40;;;;;;5029404;28;20048;-79
2021/12/22 12:49:03;;;;;;;15.32;10.25;;;5.20;80.70;;;;;;5037400;28;20039;-79
2021/12/22 12:51:33;;;;;;;18.40;9.93;;;5.30;81.10;;;;;;5023056;28;20033;-79
2021/12/22 12:54:05;;;;;;;14.77;9.32;;;5.50;81.00;;;;;;5024308;28;20033;-78
2021/12/22 12:56:42;;;;;;;18.67;10.32;;;5.60;80.50;;;;;;5032625;28;20049;-78
2021/12/22 12:59:09;;;;;;;18.88;10.30;;;5.70;80.20;;;;;;5011814;28;20033;-78
2021/12/22 13:01:46;;;;;;;16.25;9.95;;;5.80;80.30;;;;;;5028333;28;20037;-79
2021/12/22 13:04:29;;;;;;;18.83;10.10;;;6.00;79.80;;;;;;5012221;28;20139;-78
2021/12/22 13:07:05;;;;;;;18.25;11.43;;;6.10;79.70;;;;;;5008509;28;20068;-80
2021/12/22 13:09:39;;;;;;;20.70;12.07;;;6.20;79.60;;;;;;5053564;28;20108;-78